Time;durP1;ratioP1;P1;durP2;ratioP2;P2;SDS_P1;SDS_P2;PMS_P1;PMS_P2;Temp;Humidity;BMP_temperature;BMP_pressure;BME280_temperature;BME280_humidity;BME280_pressure;Samples;Min_cycle;Max_cycle;Signal;HPM_P1;HPM_P2
2022/08/06 00:00:45;;;;;;;2.38;0.52;;;14.40;99.90;;;;;;5022925;28;20126;-75
2022/08/06 00:03:11;;;;;;;1.35;0.60;;;14.40;99.90;;;;;;5045778;28;20083;-74
2022/08/06 00:05:37;;;;;;;2.55;0.30;;;14.30;99.90;;;;;;5046648;28;20040;-74
2022/08/06 00:08:05;;;;;;;3.42;0.40;;;14.30;99.90;;;;;;5037734;28;20044;-75
2022/08/06 00:10:31;;;;;;;0.90;0.50;;;14.30;99.90;;;;;;5040108;28;20041;-75
2022/08/06 00:12:58;;;;;;;2.70;0.35;;;14.30;99.90;;;;;;5041100;28;20053;-75
2022/08/06 00:15:24;;;;;;;6.88;0.90;;;15.30;99.90;;;;;;5043280;28;20060;-75
2022/08/06 00:17:49;;;;;;;3.08;0.60;;;14.30;99.90;;;;;;5042929;28;20032;-76
2022/08/06 00:20:15;;;;;;;3.15;0.65;;;14.90;99.90;;;;;;5042782;28;20059;-75
2022/08/06 00:22:42;;;;;;;2.42;0.47;;;14.30;99.90;;;;;;5034979;28;20116;-75
2022/08/06 00:25:10;;;;;;;2.00;0.50;;;14.20;99.90;;;;;;5021601;28;20048;-75
2022/08/06 00:27:36;;;;;;;2.33;0.60;;;14.20;99.90;;;;;;5037891;28;20037;-74
2022/08/06 00:30:04;;;;;;;2.75;0.50;;;15.30;99.90;;;;;;5044487;28;20049;-75
2022/08/06 00:32:30;;;;;;;2.92;0.63;;;14.20;99.90;;;;;;5023717;28;20056;-75
2022/08/06 00:34:58;;;;;;;1.88;0.43;;;14.20;99.90;;;;;;5028859;28;20519;-75
2022/08/06 00:37:26;;;;;;;2.72;0.52;;;14.20;99.90;;;;;;5007841;28;20040;-75
2022/08/06 00:39:51;;;;;;;5.40;0.65;;;14.20;99.90;;;;;;5022540;28;20110;-74
2022/08/06 00:42:17;;;;;;;2.83;0.30;;;14.10;99.90;;;;;;5025315;28;20474;-74
2022/08/06 00:44:43;;;;;;;1.85;0.50;;;14.20;99.90;;;;;;5027220;28;20045;-74
2022/08/06 00:47:09;;;;;;;3.65;0.38;;;14.10;99.90;;;;;;5042732;28;20044;-74
2022/08/06 00:49:34;;;;;;;1.80;0.20;;;14.10;99.90;;;;;;5042291;28;20044;-74
2022/08/06 00:52:00;;;;;;;1.75;0.52;;;14.00;99.90;;;;;;5037512;28;20041;-75
2022/08/06 00:54:28;;;;;;;2.08;0.40;;;14.00;99.90;;;;;;5029235;28;20125;-75
2022/08/06 00:56:54;;;;;;;1.85;0.45;;;14.00;99.90;;;;;;5045950;28;20045;-75
2022/08/06 00:59:20;;;;;;;2.08;0.30;;;14.00;99.90;;;;;;5028833;28;20412;-76
2022/08/06 01:01:46;;;;;;;3.17;0.50;;;14.00;99.90;;;;;;5038896;28;20071;-75
2022/08/06 01:04:11;;;;;;;3.22;0.68;;;14.00;99.90;;;;;;5025735;28;20119;-75
2022/08/06 01:06:38;;;;;;;3.90;0.30;;;13.40;99.90;;;;;;5021891;28;20124;-75
2022/08/06 01:09:04;;;;;;;1.85;0.40;;;14.50;99.90;;;;;;5042911;28;20045;-75
2022/08/06 01:11:30;;;;;;;4.68;0.30;;;13.80;99.90;;;;;;5023222;28;20041;-73
2022/08/06 01:13:55;;;;;;;1.80;0.43;;;13.70;99.90;;;;;;5045885;28;20117;-74
2022/08/06 01:16:26;;;;;;;1.65;0.20;;;14.70;99.90;;;;;;5045121;28;20074;-74
2022/08/06 01:19:21;;;;;;;1.48;0.17;;;13.70;99.90;;;;;;5044988;28;20186;-74
2022/08/06 01:22:10;;;;;;;1.98;0.20;;;13.60;99.90;;;;;;5038380;28;20041;-74
2022/08/06 01:24:43;;;;;;;1.48;0.28;;;13.50;99.90;;;;;;5023551;28;20360;-75
2022/08/06 01:27:36;;;;;;;1.58;0.30;;;14.10;99.90;;;;;;5021052;28;20527;-75
2022/08/06 01:30:07;;;;;;;2.20;0.30;;;13.40;99.90;;;;;;5043589;28;20044;-75
2022/08/06 01:32:43;;;;;;;1.83;0.35;;;13.30;99.90;;;;;;5040678;28;20465;-74
2022/08/06 01:35:16;;;;;;;1.40;0.60;;;13.60;99.90;;;;;;5022697;28;20048;-74
2022/08/06 01:37:47;;;;;;;1.88;0.30;;;13.20;99.90;;;;;;5038223;28;20056;-76
2022/08/06 01:40:20;;;;;;;2.88;0.30;;;13.10;99.90;;;;;;5046820;28;20439;-75
2022/08/06 01:42:48;;;;;;;1.73;0.50;;;13.10;99.90;;;;;;5033077;28;20065;-74
2022/08/06 01:45:17;;;;;;;4.05;0.88;;;13.00;99.90;;;;;;5044520;28;20089;-75
2022/08/06 01:47:47;;;;;;;2.92;0.55;;;13.10;99.90;;;;;;5039203;28;20041;-76
2022/08/06 01:50:14;;;;;;;4.13;0.65;;;13.10;99.90;;;;;;5043109;28;20124;-75
2022/08/06 01:52:42;;;;;;;2.67;0.75;;;13.10;99.90;;;;;;5042481;28;20045;-75
2022/08/06 01:55:13;;;;;;;2.60;0.70;;;14.10;99.90;;;;;;5044147;28;20076;-75
2022/08/06 01:57:41;;;;;;;3.03;0.90;;;13.10;99.90;;;;;;5047385;28;20079;-75
2022/08/06 02:00:07;;;;;;;2.20;0.60;;;14.20;99.90;;;;;;5043663;28;20044;-75
2022/08/06 02:02:35;;;;;;;2.40;0.63;;;13.00;99.90;;;;;;5044638;28;20039;-75
2022/08/06 02:05:01;;;;;;;3.00;0.43;;;12.90;99.90;;;;;;5045901;28;20053;-75
2022/08/06 02:07:42;;;;;;;2.80;0.50;;;12.90;99.90;;;;;;5042095;28;20132;-75
2022/08/06 02:10:11;;;;;;;2.92;0.50;;;12.90;99.90;;;;;;5031028;28;20092;-75
2022/08/06 02:12:39;;;;;;;1.85;0.57;;;13.10;99.90;;;;;;5029098;28;20055;-75
2022/08/06 02:15:14;;;;;;;3.05;0.70;;;12.80;99.90;;;;;;5046022;28;20136;-75
2022/08/06 02:17:45;;;;;;;3.33;0.80;;;12.70;99.90;;;;;;5044900;28;20131;-75
2022/08/06 02:20:14;;;;;;;3.95;0.70;;;12.70;99.90;;;;;;5046405;28;20037;-75
2022/08/06 02:22:41;;;;;;;3.30;0.98;;;13.00;99.90;;;;;;5043486;28;20048;-75
2022/08/06 02:25:11;;;;;;;2.63;0.80;;;12.60;99.90;;;;;;5044857;28;20073;-75
2022/08/06 02:27:39;;;;;;;1.98;0.88;;;12.60;99.90;;;;;;5041619;28;20354;-75
2022/08/06 02:30:05;;;;;;;3.13;1.48;;;12.70;99.90;;;;;;5043078;28;20047;-75
2022/08/06 02:32:31;;;;;;;4.70;1.05;;;12.60;99.90;;;;;;5047469;28;20068;-76
2022/08/06 02:34:58;;;;;;;1.88;1.10;;;12.50;99.90;;;;;;5043520;28;20068;-76
2022/08/06 02:37:34;;;;;;;1.85;0.90;;;12.50;99.90;;;;;;5040068;28;20049;-75
2022/08/06 02:40:11;;;;;;;2.72;1.23;;;12.50;99.90;;;;;;5023761;28;20037;-75
2022/08/06 02:42:48;;;;;;;5.03;1.40;;;12.50;99.90;;;;;;5047493;28;20221;-75
2022/08/06 02:45:14;;;;;;;1.92;0.90;;;12.50;99.90;;;;;;5046893;28;20139;-75
2022/08/06 02:47:44;;;;;;;2.70;0.98;;;12.50;99.90;;;;;;5037531;28;20045;-75
2022/08/06 02:50:13;;;;;;;3.13;1.25;;;12.50;99.90;;;;;;5023464;28;20620;-75
2022/08/06 02:52:52;;;;;;;2.20;0.70;;;13.40;99.90;;;;;;5028114;28;20456;-75
2022/08/06 02:55:23;;;;;;;1.52;1.00;;;12.40;99.90;;;;;;5027080;28;20523;-75
2022/08/06 02:57:55;;;;;;;4.65;1.13;;;12.30;99.90;;;;;;5042015;28;20285;-75
2022/08/06 03:00:22;;;;;;;5.25;1.08;;;12.70;99.90;;;;;;5038911;28;20116;-75
2022/08/06 03:02:52;;;;;;;4.57;1.40;;;12.40;99.90;;;;;;5027823;28;20112;-75
2022/08/06 03:05:20;;;;;;;2.58;1.75;;;12.70;99.90;;;;;;5038868;28;20053;-75
2022/08/06 03:07:51;;;;;;;4.60;1.55;;;12.40;99.90;;;;;;5042180;28;20079;-76
2022/08/06 03:10:22;;;;;;;2.53;1.15;;;12.30;99.90;;;;;;5043732;28;20546;-74
2022/08/06 03:12:51;;;;;;;2.17;1.42;;;12.20;99.90;;;;;;5040900;28;20587;-75
2022/08/06 03:15:18;;;;;;;3.03;1.40;;;12.30;99.90;;;;;;5047631;28;20174;-74
2022/08/06 03:17:45;;;;;;;3.75;1.67;;;12.30;99.90;;;;;;5045007;28;20400;-75
2022/08/06 03:20:14;;;;;;;4.07;1.83;;;12.20;99.90;;;;;;5003934;28;20060;-74
2022/08/06 03:22:42;;;;;;;5.25;1.60;;;12.20;99.90;;;;;;5036438;28;20050;-73
2022/08/06 03:25:09;;;;;;;2.80;1.45;;;12.20;99.90;;;;;;5045449;28;20044;-74
2022/08/06 03:27:37;;;;;;;5.47;1.40;;;12.20;99.90;;;;;;5039233;28;20125;-75
2022/08/06 03:30:03;;;;;;;3.20;1.48;;;12.30;99.90;;;;;;5024009;28;20029;-75
2022/08/06 03:32:31;;;;;;;1.80;1.60;;;12.20;99.90;;;;;;5042218;28;20791;-75
2022/08/06 03:34:57;;;;;;;1.90;1.33;;;12.20;99.90;;;;;;5046767;28;20517;-75
2022/08/06 03:37:24;;;;;;;2.92;1.38;;;12.20;99.90;;;;;;5043144;28;20045;-74
2022/08/06 03:39:51;;;;;;;3.08;1.40;;;12.10;99.90;;;;;;5031464;28;20033;-74
2022/08/06 03:42:17;;;;;;;3.90;1.58;;;12.10;99.90;;;;;;5044041;28;20044;-74
2022/08/06 03:44:43;;;;;;;2.45;1.33;;;12.00;99.90;;;;;;5035400;28;20428;-75
2022/08/06 03:47:32;;;;;;;4.18;1.13;;;12.00;99.90;;;;;;5044519;28;20087;-74
2022/08/06 03:50:09;;;;;;;2.35;0.88;;;10.80;99.90;;;;;;5037215;28;20076;-74
2022/08/06 03:52:44;;;;;;;1.55;1.45;;;12.00;99.90;;;;;;5037578;28;20365;-74
2022/08/06 03:55:14;;;;;;;6.70;1.90;;;12.00;99.90;;;;;;5037397;28;20128;-74
2022/08/06 03:57:43;;;;;;;2.72;1.70;;;12.00;99.90;;;;;;5046095;28;20041;-74
2022/08/06 04:00:11;;;;;;;8.27;1.77;;;12.70;99.90;;;;;;5037784;28;20072;-74
2022/08/06 04:02:54;;;;;;;4.82;1.60;;;11.90;99.90;;;;;;5036081;28;20082;-74
2022/08/06 04:05:23;;;;;;;2.28;1.50;;;12.20;99.90;;;;;;5036548;28;20057;-74
2022/08/06 04:07:53;;;;;;;2.17;1.35;;;11.90;99.90;;;;;;5022161;28;20048;-74
2022/08/06 04:10:20;;;;;;;3.03;1.40;;;11.80;99.90;;;;;;5021711;28;20140;-74
2022/08/06 04:12:46;;;;;;;2.42;1.27;;;12.10;99.90;;;;;;5028111;28;20045;-75
2022/08/06 04:15:13;;;;;;;4.10;1.45;;;11.90;99.90;;;;;;5048599;28;20059;-74
2022/08/06 04:17:41;;;;;;;2.35;1.13;;;11.90;99.90;;;;;;5026819;28;20125;-74
2022/08/06 04:20:13;;;;;;;3.90;1.40;;;11.90;99.90;;;;;;5020902;28;20033;-74
2022/08/06 04:22:39;;;;;;;2.60;1.20;;;11.90;99.90;;;;;;5042431;28;20174;-74
2022/08/06 04:25:05;;;;;;;2.45;1.63;;;11.90;99.90;;;;;;5044272;28;20524;-74
2022/08/06 04:27:31;;;;;;;2.90;1.63;;;11.90;99.90;;;;;;5041412;28;20040;-74
2022/08/06 04:29:59;;;;;;;2.28;1.48;;;11.90;99.90;;;;;;5044020;28;20041;-74
2022/08/06 04:32:26;;;;;;;4.18;1.33;;;11.90;99.90;;;;;;5039293;28;20063;-75
2022/08/06 04:34:54;;;;;;;1.92;1.60;;;11.90;99.90;;;;;;5040062;28;20435;-73
2022/08/06 04:37:21;;;;;;;3.30;1.80;;;12.50;99.90;;;;;;5043425;28;20529;-75
2022/08/06 04:39:47;;;;;;;1.88;1.13;;;11.80;99.90;;;;;;5040748;28;20565;-75
2022/08/06 04:42:13;;;;;;;2.40;1.38;;;11.90;99.90;;;;;;5043916;28;20563;-75
2022/08/06 04:44:39;;;;;;;2.15;1.40;;;11.90;99.90;;;;;;5044875;28;20044;-75
2022/08/06 04:47:06;;;;;;;4.20;1.25;;;12.50;99.90;;;;;;5045891;28;20029;-76
2022/08/06 04:49:34;;;;;;;2.25;1.70;;;11.90;99.90;;;;;;5020383;28;20041;-74
2022/08/06 04:52:00;;;;;;;6.55;1.50;;;11.90;99.90;;;;;;5040569;28;20052;-75
2022/08/06 04:54:26;;;;;;;2.35;1.30;;;11.90;99.90;;;;;;5038791;28;20037;-74
2022/08/06 04:56:51;;;;;;;1.77;1.50;;;12.50;99.90;;;;;;5040920;28;20409;-75
2022/08/06 04:59:18;;;;;;;4.85;1.50;;;11.90;99.90;;;;;;5046579;28;20040;-75
2022/08/06 05:01:43;;;;;;;1.90;1.55;;;12.70;99.90;;;;;;5039523;28;20037;-76
2022/08/06 05:04:09;;;;;;;2.05;1.60;;;12.00;99.90;;;;;;5038039;28;20062;-75
2022/08/06 05:06:55;;;;;;;4.10;1.42;;;12.00;99.90;;;;;;5043884;28;20120;-75
2022/08/06 05:09:24;;;;;;;1.75;1.23;;;12.00;99.90;;;;;;5043922;28;20477;-76
2022/08/06 05:12:01;;;;;;;3.13;1.52;;;11.90;99.90;;;;;;5028783;28;20138;-75
2022/08/06 05:14:37;;;;;;;2.08;1.08;;;11.90;99.90;;;;;;5047900;28;20048;-74
2022/08/06 05:17:04;;;;;;;2.25;1.92;;;11.90;99.90;;;;;;5045626;28;20041;-73
2022/08/06 05:19:42;;;;;;;3.60;1.30;;;12.00;99.90;;;;;;5045620;28;20072;-75
2022/08/06 05:22:10;;;;;;;4.32;1.52;;;12.00;99.90;;;;;;5042951;28;20051;-75
2022/08/06 05:24:37;;;;;;;3.00;1.20;;;12.00;99.90;;;;;;5017529;28;20076;-75
2022/08/06 05:27:03;;;;;;;1.52;1.27;;;12.00;99.90;;;;;;5037163;28;20041;-75
2022/08/06 05:29:29;;;;;;;1.05;1.00;;;12.00;99.90;;;;;;5022712;28;20044;-75
2022/08/06 05:31:59;;;;;;;1.40;1.30;;;12.00;99.90;;;;;;5040919;28;20322;-75
2022/08/06 05:34:25;;;;;;;5.35;1.02;;;12.10;99.90;;;;;;5040851;28;20041;-75
2022/08/06 05:36:50;;;;;;;1.55;0.98;;;12.40;99.90;;;;;;5037884;28;20059;-75
2022/08/06 05:39:16;;;;;;;1.38;1.23;;;12.20;99.90;;;;;;5041304;28;20037;-75
2022/08/06 05:41:42;;;;;;;1.92;1.17;;;12.30;99.90;;;;;;5035019;28;20049;-75
2022/08/06 05:44:08;;;;;;;1.50;1.02;;;12.40;99.90;;;;;;5024746;28;20460;-73
2022/08/06 05:46:39;;;;;;;2.80;1.20;;;12.90;99.90;;;;;;5043326;28;20187;-74
2022/08/06 05:49:12;;;;;;;1.98;1.42;;;13.30;99.90;;;;;;5049647;28;20037;-74
2022/08/06 05:52:11;;;;;;;1.95;1.25;;;12.50;99.90;;;;;;5024922;28;20152;-74
2022/08/06 05:54:47;;;;;;;4.28;1.35;;;12.60;99.90;;;;;;4981029;28;20061;-74
2022/08/06 05:57:42;;;;;;;4.15;0.85;;;12.60;99.90;;;;;;5042189;28;20117;-74
2022/08/06 06:00:12;;;;;;;5.22;1.17;;;12.70;99.90;;;;;;5040438;28;20038;-76
2022/08/06 06:02:47;;;;;;;4.80;1.08;;;12.80;99.90;;;;;;5039218;28;20043;-74
2022/08/06 06:05:23;;;;;;;1.05;0.80;;;12.80;99.90;;;;;;5046825;28;20163;-75
2022/08/06 06:07:49;;;;;;;3.70;1.00;;;13.00;99.90;;;;;;5042289;28;20033;-75
2022/08/06 06:10:16;;;;;;;4.38;2.33;;;13.10;99.90;;;;;;5041716;28;20447;-75
2022/08/06 06:12:43;;;;;;;2.83;1.00;;;13.60;99.90;;;;;;5028434;28;20045;-75
2022/08/06 06:15:13;;;;;;;4.43;2.08;;;13.20;99.90;;;;;;5045313;28;20065;-74
2022/08/06 06:17:44;;;;;;;4.00;1.30;;;13.30;99.90;;;;;;5046899;28;20051;-73
2022/08/06 06:20:12;;;;;;;2.30;0.77;;;13.40;99.90;;;;;;5042597;28;20040;-74
2022/08/06 06:23:04;;;;;;;2.28;0.70;;;13.50;99.90;;;;;;5038190;28;20531;-74
2022/08/06 06:26:03;;;;;;;3.80;0.93;;;13.70;99.90;;;;;;5038614;28;20052;-75
2022/08/06 06:28:54;;;;;;;3.13;1.20;;;13.80;99.90;;;;;;5041871;28;20049;-74
2022/08/06 06:31:38;;;;;;;0.75;0.57;;;13.90;99.90;;;;;;5042086;28;20098;-74
2022/08/06 06:34:17;;;;;;;2.58;0.65;;;14.10;99.90;;;;;;5041347;28;20051;-73
2022/08/06 06:37:09;;;;;;;4.47;0.70;;;14.10;99.90;;;;;;5041946;28;20045;-81
2022/08/06 06:40:08;;;;;;;2.15;0.95;;;14.20;99.90;;;;;;5047703;28;20091;-80
2022/08/06 06:43:00;;;;;;;6.15;0.68;;;15.10;99.90;;;;;;5035574;28;20507;-82
2022/08/06 06:45:36;;;;;;;3.22;0.60;;;14.20;99.90;;;;;;5050359;28;20068;-81
2022/08/06 06:48:14;;;;;;;5.30;0.85;;;14.40;99.90;;;;;;5041890;28;20049;-81
2022/08/06 06:50:47;;;;;;;4.45;0.65;;;14.50;99.90;;;;;;5047905;22;20049;-81
2022/08/06 06:53:14;;;;;;;6.43;0.55;;;15.00;99.90;;;;;;5050157;28;20654;-81
2022/08/06 06:55:47;;;;;;;1.00;0.43;;;14.90;99.90;;;;;;5051065;28;20087;-80
2022/08/06 06:58:50;;;;;;;4.40;1.17;;;14.70;99.90;;;;;;5033111;28;20132;-81
2022/08/06 07:01:17;;;;;;;3.53;0.55;;;14.80;99.90;;;;;;5050778;28;20044;-81
2022/08/06 07:03:45;;;;;;;2.25;0.10;;;15.60;99.90;;;;;;5049114;28;20037;-80
2022/08/06 07:06:12;;;;;;;3.28;0.40;;;14.90;99.90;;;;;;5048370;28;20080;-81
2022/08/06 07:08:44;;;;;;;1.55;0.20;;;15.00;99.90;;;;;;5052068;28;20068;-80
2022/08/06 07:11:16;;;;;;;3.70;0.40;;;15.10;99.90;;;;;;5064581;28;20037;-80
2022/08/06 07:13:44;;;;;;;1.63;0.40;;;15.20;99.90;;;;;;5057401;28;20084;-80
2022/08/06 07:16:12;;;;;;;3.22;0.30;;;15.60;99.90;;;;;;5033842;28;20033;-81
2022/08/06 07:18:38;;;;;;;1.85;0.20;;;15.30;99.90;;;;;;5048113;28;20489;-81
2022/08/06 07:21:05;;;;;;;1.00;0.30;;;15.40;99.90;;;;;;5030385;28;20079;-81
2022/08/06 07:23:32;;;;;;;4.07;0.30;;;15.50;99.90;;;;;;5047126;28;20029;-72
2022/08/06 07:25:59;;;;;;;0.77;0.28;;;15.60;99.90;;;;;;5043549;28;20047;-74
2022/08/06 07:28:26;;;;;;;2.72;0.32;;;15.70;99.90;;;;;;5046397;28;20044;-73
2022/08/06 07:30:53;;;;;;;3.13;0.40;;;15.70;99.90;;;;;;5029673;28;20049;-72
2022/08/06 07:33:19;;;;;;;1.88;0.60;;;15.80;99.90;;;;;;5036061;28;20061;-74
2022/08/06 07:35:50;;;;;;;2.40;0.55;;;15.90;99.90;;;;;;5057436;28;20040;-72
2022/08/06 07:38:17;;;;;;;2.70;0.50;;;16.00;99.90;;;;;;5051547;28;20431;-73
2022/08/06 07:40:50;;;;;;;3.25;0.73;;;16.20;99.90;;;;;;5046789;28;20045;-73
2022/08/06 07:43:20;;;;;;;3.75;0.43;;;16.30;99.90;;;;;;5051986;28;20045;-71
2022/08/06 07:45:54;;;;;;;4.60;0.60;;;16.60;99.90;;;;;;5046241;28;20127;-75
2022/08/06 07:48:23;;;;;;;;;;;16.20;99.90;;;;;;5040944;28;20033;-74
2022/08/06 07:50:52;;;;;;;2.65;0.30;;;16.30;99.90;;;;;;5034287;28;19981;-74
2022/08/06 07:53:20;;;;;;;5.35;0.40;;;16.40;99.90;;;;;;5027208;28;20071;-75
2022/08/06 07:55:47;;;;;;;3.55;2.15;;;16.50;99.90;;;;;;5024394;28;20435;-73
2022/08/06 07:58:14;;;;;;;3.65;0.98;;;16.50;99.90;;;;;;5029996;28;20084;-75
2022/08/06 08:00:44;;;;;;;2.22;0.95;;;16.70;99.90;;;;;;5047847;28;20055;-75
2022/08/06 08:09:21;;;;;;;7.95;1.25;;;16.50;99.90;;;;;;5047425;28;20069;-74
2022/08/06 08:11:57;;;;;;;2.15;1.05;;;16.40;99.90;;;;;;5011784;28;20067;-73
2022/08/06 08:14:23;;;;;;;1.85;0.95;;;16.40;99.90;;;;;;5048724;28;20366;-74
2022/08/06 08:16:49;;;;;;;3.10;1.40;;;16.30;99.90;;;;;;5050034;28;20067;-74
2022/08/06 08:19:30;;;;;;;3.53;1.17;;;16.80;99.90;;;;;;5045762;28;20037;-74
2022/08/06 08:21:58;;;;;;;3.20;0.98;;;16.40;99.90;;;;;;5030348;28;20045;-74
2022/08/06 08:24:25;;;;;;;3.17;0.40;;;16.50;99.90;;;;;;5029481;28;20390;-74
2022/08/06 08:26:50;;;;;;;3.08;0.70;;;16.60;99.90;;;;;;5031339;28;20060;-75
2022/08/06 08:29:17;;;;;;;2.63;0.80;;;16.80;99.90;;;;;;5026932;28;20049;-73
2022/08/06 08:31:44;;;;;;;3.20;0.85;;;16.90;99.90;;;;;;5029292;28;20047;-74
2022/08/06 08:34:11;;;;;;;2.55;0.50;;;17.00;99.90;;;;;;5031696;28;20029;-74
2022/08/06 08:36:41;;;;;;;5.03;0.82;;;17.10;99.90;;;;;;5029839;28;20508;-74
2022/08/06 08:39:10;;;;;;;2.15;0.50;;;17.10;99.90;;;;;;5045506;28;20051;-78
2022/08/06 08:41:40;;;;;;;0.60;0.60;;;17.20;99.90;;;;;;5011181;28;20045;-78
2022/08/06 08:44:08;;;;;;;2.90;1.05;;;17.20;99.90;;;;;;5046117;28;20098;-72
2022/08/06 08:46:41;;;;;;;4.18;2.17;;;17.30;99.90;;;;;;5047132;28;20123;-72
2022/08/06 08:49:18;;;;;;;1.65;0.93;;;17.40;99.90;;;;;;5044460;28;20057;-72
2022/08/06 08:51:48;;;;;;;3.92;0.90;;;17.30;99.90;;;;;;5043043;28;20084;-71
2022/08/06 08:54:18;;;;;;;2.60;0.65;;;17.30;99.90;;;;;;5042697;28;20071;-72
2022/08/06 08:56:47;;;;;;;3.63;0.85;;;17.30;99.90;;;;;;5046378;28;20408;-72
2022/08/06 08:59:14;;;;;;;0.93;0.45;;;17.30;99.90;;;;;;5046585;28;20310;-70
2022/08/06 09:01:40;;;;;;;5.50;0.68;;;17.30;99.90;;;;;;5049236;28;20049;-71
2022/08/06 09:04:07;;;;;;;2.75;0.70;;;17.30;99.90;;;;;;5052127;28;20116;-80
2022/08/06 09:06:33;;;;;;;2.05;1.00;;;17.30;99.90;;;;;;5042580;28;20094;-73
2022/08/06 09:09:05;;;;;;;2.10;0.85;;;17.10;99.90;;;;;;5035999;28;20113;-73
2022/08/06 09:11:32;;;;;;;2.05;0.60;;;17.10;99.90;;;;;;5050048;28;20052;-73
2022/08/06 09:14:06;;;;;;;3.42;0.77;;;17.10;99.90;;;;;;4347393;28;10000724;-74
2022/08/06 09:16:33;;;;;;;4.43;0.70;;;17.00;99.90;;;;;;5029297;28;20049;-72
2022/08/06 09:19:00;;;;;;;2.50;0.57;;;17.10;99.90;;;;;;5048228;28;20036;-73
2022/08/06 09:21:26;;;;;;;0.73;0.52;;;17.00;99.90;;;;;;5048440;28;20074;-73
2022/08/06 09:23:52;;;;;;;2.13;0.30;;;17.30;99.90;;;;;;5049736;28;20120;-77
2022/08/06 09:26:18;;;;;;;2.17;0.70;;;16.90;99.90;;;;;;5051887;28;20112;-77
2022/08/06 09:28:46;;;;;;;1.15;0.50;;;16.90;99.90;;;;;;5050855;28;20044;-76
2022/08/06 09:31:11;;;;;;;1.73;0.40;;;16.90;99.90;;;;;;5046436;28;20242;-76
2022/08/06 09:33:39;;;;;;;5.30;1.02;;;17.00;99.90;;;;;;5034585;28;20780;-77
2022/08/06 09:36:10;;;;;;;3.40;0.60;;;17.00;99.90;;;;;;5045460;28;20923;-79
2022/08/06 09:38:52;;;;;;;2.28;0.50;;;17.10;99.90;;;;;;5050332;28;20033;-77
2022/08/06 09:41:21;;;;;;;1.35;0.85;;;17.20;99.90;;;;;;5047627;28;20044;-78
2022/08/06 09:43:48;;;;;;;3.47;1.30;;;17.30;99.90;;;;;;5049174;28;20033;-77
2022/08/06 09:46:15;;;;;;;3.28;1.67;;;17.30;99.90;;;;;;5052413;28;20095;-77
2022/08/06 09:48:57;;;;;;;2.30;1.10;;;17.30;99.90;;;;;;5054589;28;20082;-76
2022/08/06 09:51:24;;;;;;;2.05;0.90;;;17.30;99.90;;;;;;5036269;28;20053;-76
2022/08/06 09:53:57;;;;;;;2.35;0.88;;;17.20;99.90;;;;;;5053911;28;20045;-78
2022/08/06 09:56:27;;;;;;;3.75;1.02;;;17.20;99.90;;;;;;5052049;28;20048;-78
2022/08/06 09:59:01;;;;;;;1.95;0.90;;;17.10;99.90;;;;;;5049647;28;20048;-78
2022/08/06 10:01:28;;;;;;;;;;;17.10;99.90;;;;;;5047283;28;20037;-78
2022/08/06 10:03:57;;;;;;;1.30;1.05;;;17.10;99.90;;;;;;5053333;28;20740;-77
2022/08/06 10:06:25;;;;;;;2.75;1.10;;;17.10;99.90;;;;;;5053001;28;20041;-78
2022/08/06 10:09:06;;;;;;;4.43;1.10;;;17.10;99.90;;;;;;5053402;28;20045;-78
2022/08/06 10:11:37;;;;;;;2.00;1.05;;;17.80;99.90;;;;;;5034792;28;20055;-77
2022/08/06 10:14:03;;;;;;;1.85;1.08;;;17.20;99.90;;;;;;5045955;28;20037;-77
2022/08/06 10:16:32;;;;;;;4.18;1.30;;;17.20;99.90;;;;;;5050427;28;20056;-77
2022/08/06 10:18:59;;;;;;;4.13;1.05;;;17.30;99.90;;;;;;5047901;28;20042;-76
2022/08/06 10:21:32;;;;;;;1.17;1.08;;;17.30;99.90;;;;;;4693186;28;9999738;-75
2022/08/06 10:24:02;;;;;;;3.58;1.15;;;17.40;99.90;;;;;;5031264;28;20691;-76
2022/08/06 10:26:31;;;;;;;3.45;1.25;;;17.50;99.90;;;;;;5022748;28;20044;-75
2022/08/06 10:29:07;;;;;;;2.65;1.10;;;17.70;99.90;;;;;;5048954;28;20033;-75
2022/08/06 10:31:35;;;;;;;4.68;1.38;;;17.70;99.90;;;;;;5051063;28;20045;-74
2022/08/06 10:34:08;;;;;;;2.67;1.38;;;17.70;99.90;;;;;;5047608;28;20060;-75
2022/08/06 10:36:44;;;;;;;2.07;1.40;;;17.80;99.90;;;;;;5050841;28;20464;-75
2022/08/06 10:39:10;;;;;;;3.15;1.27;;;17.80;99.90;;;;;;5031689;28;20044;-75
2022/08/06 10:41:38;;;;;;;1.30;1.20;;;17.90;99.90;;;;;;5050603;28;20401;-75
2022/08/06 10:44:04;;;;;;;4.25;1.40;;;17.90;99.90;;;;;;5046743;28;20045;-74
2022/08/06 10:46:31;;;;;;;4.05;1.67;;;18.00;99.90;;;;;;5010385;28;20079;-73
2022/08/06 10:48:58;;;;;;;3.53;1.25;;;18.10;99.90;;;;;;5043233;28;20485;-74
2022/08/06 10:51:25;;;;;;;1.63;1.40;;;18.10;99.90;;;;;;5048468;28;20049;-75
2022/08/06 10:53:51;;;;;;;2.95;1.67;;;18.10;99.90;;;;;;5045259;28;20529;-75
2022/08/06 10:56:18;;;;;;;3.60;1.40;;;18.20;99.90;;;;;;5029008;28;20049;-75
2022/08/06 10:58:44;;;;;;;1.63;1.40;;;18.30;99.90;;;;;;5048169;28;20037;-75
2022/08/06 11:01:33;;;;;;;3.95;2.75;;;18.40;99.90;;;;;;5043972;28;20045;-76
2022/08/06 11:04:25;;;;;;;3.45;1.70;;;18.60;99.90;;;;;;5049767;28;20044;-75
2022/08/06 11:06:50;;;;;;;3.75;1.52;;;18.70;99.90;;;;;;5031384;28;20122;-75
2022/08/06 11:09:35;;;;;;;1.55;1.45;;;18.70;99.90;;;;;;5046869;28;20045;-75
2022/08/06 11:12:09;;;;;;;;;;;18.70;99.90;;;;;;5049328;28;20040;-78
2022/08/06 11:14:37;;;;;;;1.80;1.52;;;18.60;99.90;;;;;;5048846;28;20067;-78
2022/08/06 11:17:03;;;;;;;2.45;1.52;;;18.50;99.90;;;;;;5049235;28;20045;-79
2022/08/06 11:19:48;;;;;;;3.25;2.08;;;18.80;99.90;;;;;;5030692;28;20055;-78
2022/08/06 11:22:34;;;;;;;1.83;1.42;;;18.50;99.90;;;;;;5050878;28;20717;-78
2022/08/06 11:25:02;;;;;;;1.70;1.60;;;18.50;99.90;;;;;;5045937;28;20175;-78
2022/08/06 11:27:48;;;;;;;3.72;1.73;;;18.60;99.90;;;;;;5048033;28;20072;-78
2022/08/06 11:30:14;;;;;;;3.05;1.77;;;18.90;99.90;;;;;;5026370;28;20060;-78
2022/08/06 11:32:45;;;;;;;3.00;2.15;;;19.10;99.90;;;;;;5043699;28;20037;-78
2022/08/06 11:35:32;;;;;;;1.70;1.50;;;19.40;99.90;;;;;;5029033;28;20049;-75
2022/08/06 11:37:58;;;;;;;2.10;1.92;;;19.60;99.90;;;;;;5044370;28;20527;-77
2022/08/06 11:40:27;;;;;;;4.15;2.05;;;19.70;99.90;;;;;;5044732;28;20051;-77
2022/08/06 11:42:53;;;;;;;2.38;2.10;;;19.70;99.90;;;;;;5043616;28;20041;-78
2022/08/06 11:45:19;;;;;;;2.80;1.83;;;20.10;99.90;;;;;;5046259;28;20523;-77
2022/08/06 11:48:06;;;;;;;26.80;22.58;;;19.70;99.90;;;;;;5029088;28;20037;-77
2022/08/06 11:50:32;;;;;;;3.80;3.00;;;19.70;99.90;;;;;;5043290;28;20045;-76
2022/08/06 11:52:57;;;;;;;3.03;1.90;;;19.80;99.90;;;;;;5044068;28;20056;-75
2022/08/06 11:55:23;;;;;;;2.95;2.75;;;19.90;99.90;;;;;;5044483;28;20400;-76
2022/08/06 11:58:20;;;;;;;2.10;1.92;;;20.00;99.90;;;;;;5042766;28;20052;-75
2022/08/06 12:01:01;;;;;;;3.78;2.58;;;20.10;99.90;;;;;;5044166;28;20037;-75
2022/08/06 12:03:39;;;;;;;2.72;2.22;;;20.30;99.50;;;;;;5040571;28;20045;-75
2022/08/06 12:06:22;;;;;;;5.88;2.25;;;20.50;99.90;;;;;;5026298;28;20045;-76
2022/08/06 12:09:07;;;;;;;2.47;2.03;;;20.60;99.10;;;;;;5046145;28;20040;-76
2022/08/06 12:11:35;;;;;;;1.80;1.70;;;20.70;98.90;;;;;;5046733;28;20092;-76
2022/08/06 12:14:01;;;;;;;2.83;1.77;;;20.80;98.90;;;;;;5045364;28;20385;-75
2022/08/06 12:16:35;;;;;;;2.00;1.80;;;20.70;98.50;;;;;;5047027;28;20098;-75
2022/08/06 12:19:03;;;;;;;2.22;2.00;;;20.80;98.20;;;;;;5044359;28;20120;-75
2022/08/06 12:21:29;;;;;;;3.35;2.30;;;20.80;98.10;;;;;;5047575;28;20048;-77
2022/08/06 12:23:56;;;;;;;3.13;2.15;;;20.90;97.80;;;;;;5027997;28;20401;-75
2022/08/06 12:26:22;;;;;;;2.38;1.52;;;21.00;97.30;;;;;;5045905;28;20052;-75
2022/08/06 12:28:49;;;;;;;2.90;1.50;;;21.00;96.90;;;;;;5048895;28;20041;-76
2022/08/06 12:31:32;;;;;;;2.35;2.15;;;21.10;96.20;;;;;;5027935;28;20077;-76
2022/08/06 12:33:58;;;;;;;2.00;1.45;;;21.10;96.10;;;;;;5026514;28;20048;-74
2022/08/06 12:36:30;;;;;;;1.90;1.52;;;21.40;96.30;;;;;;5014437;28;20049;-74
2022/08/06 12:38:58;;;;;;;2.33;1.52;;;21.30;96.00;;;;;;5044532;28;20041;-74
2022/08/06 12:41:33;;;;;;;1.52;1.38;;;21.30;95.20;;;;;;5044061;28;20045;-74
2022/08/06 12:43:58;;;;;;;2.17;1.50;;;21.40;95.20;;;;;;5027394;28;20033;-75
2022/08/06 12:46:25;;;;;;;2.47;1.90;;;21.50;95.00;;;;;;5010786;28;20512;-75
2022/08/06 12:48:51;;;;;;;3.15;1.73;;;21.50;95.00;;;;;;5030047;28;20077;-75
2022/08/06 12:51:18;;;;;;;2.25;2.05;;;21.60;95.00;;;;;;5044413;28;20049;-75
2022/08/06 12:53:48;;;;;;;3.15;1.83;;;21.60;94.90;;;;;;5043522;28;20057;-74
2022/08/06 12:56:17;;;;;;;2.20;2.10;;;21.50;94.40;;;;;;5045883;28;20048;-75
2022/08/06 12:58:44;;;;;;;3.03;1.63;;;21.30;94.30;;;;;;5042689;28;20132;-75
2022/08/06 13:01:17;;;;;;;1.70;1.58;;;21.40;94.50;;;;;;5047885;28;20094;-76
2022/08/06 13:03:48;;;;;;;2.65;1.92;;;21.40;94.60;;;;;;5044754;28;20033;-75
2022/08/06 13:06:16;;;;;;;7.13;2.50;;;21.50;94.40;;;;;;5041383;28;20044;-74
2022/08/06 13:08:46;;;;;;;4.13;2.10;;;21.90;94.50;;;;;;5021661;28;20037;-77
2022/08/06 13:11:12;;;;;;;2.05;1.83;;;21.80;94.50;;;;;;5046299;28;20481;-77